Time;durP1;ratioP1;P1;durP2;ratioP2;P2;SDS_P1;SDS_P2;PMS_P1;PMS_P2;Temp;Humidity;BMP_temperature;BMP_pressure;BME280_temperature;BME280_humidity;BME280_pressure;Samples;Min_cycle;Max_cycle;Signal;HPM_P1;HPM_P2
2022/06/02 00:00:47;;;;;;;;;;;;;;;21.89;30.30;97922.38;4861606;29;1004;-76
2022/06/02 00:03:34;;;;;;;;;;;;;;;21.61;30.81;97924.78;4842548;29;1980;-77
2022/06/02 00:06:02;;;;;;;;;;;;;;;21.49;30.73;97925.50;4842777;29;908;-76
2022/06/02 00:08:43;;;;;;;;;;;;;;;21.56;30.45;97919.66;4842601;29;1079;-76
2022/06/02 00:11:17;;;;;;;;;;;;;;;21.35;31.05;97928.69;4842691;29;1086;-76
2022/06/02 00:14:05;;;;;;;;;;;;;;;21.37;30.86;97914.91;4842575;29;955;-76
2022/06/02 00:16:43;;;;;;;;;;;;;;;21.27;30.89;97917.56;4824345;29;1186;-76
2022/06/02 00:19:10;;;;;;;;;;;;;;;21.37;30.65;97920.56;4810590;29;1091;-76
2022/06/02 00:21:43;;;;;;;;;;;;;;;21.30;30.76;97916.72;4824286;29;1031;-76
2022/06/02 00:24:18;;;;;;;;;;;;;;;21.19;30.92;97907.69;4839276;29;2378;-76
2022/06/02 00:26:58;;;;;;;;;;;;;;;21.24;31.04;97907.13;4813270;29;1008;-76
2022/06/02 00:29:35;;;;;;;;;;;;;;;21.18;30.83;97903.22;4829292;29;985;-77
2022/06/02 00:32:08;;;;;;;;;;;;;;;21.14;31.10;97896.91;4861215;29;1015;-76
2022/06/02 00:34:34;;;;;;;;;;;;;;;21.46;31.10;97903.75;4891673;29;1036;-76
2022/06/02 00:37:02;;;;;;;;;;;;;;;21.81;30.88;97894.25;4898447;29;977;-77
2022/06/02 00:39:29;;;;;;;;;;;;;;;21.96;30.39;97899.47;4898506;29;1014;-76
2022/06/02 00:41:54;;;;;;;;;;;;;;;21.79;30.60;97891.06;4897838;29;925;-75
2022/06/02 00:44:43;;;;;;;;;;;;;;;21.45;30.98;97899.31;4897994;29;1914;-76
2022/06/02 00:47:28;;;;;;;;;;;;;;;21.42;31.11;97886.06;4826449;29;1075;-76
2022/06/02 00:50:06;;;;;;;;;;;;;;;21.44;30.95;97892.06;4827050;29;1008;-76
2022/06/02 00:52:39;;;;;;;;;;;;;;;21.40;30.85;97894.19;4822804;29;1068;-76
2022/06/02 00:58:08;;;;;;;;;;;;;;;21.24;31.15;97890.16;4901442;29;978;-77
2022/06/02 01:00:37;;;;;;;;;;;;;;;21.40;30.96;97897.03;4901892;29;1068;-77
2022/06/02 01:03:06;;;;;;;;;;;;;;;21.25;30.98;97900.22;4885723;29;1906;-76
2022/06/02 01:05:32;;;;;;;;;;;;;;;21.29;30.79;97886.75;4870535;29;962;-77
2022/06/02 01:08:09;;;;;;;;;;;;;;;21.26;30.86;97893.34;4901447;29;975;-77
2022/06/02 01:10:38;;;;;;;;;;;;;;;21.16;31.01;97893.63;4901596;29;1012;-76
2022/06/02 01:13:06;;;;;;;;;;;;;;;21.17;30.86;97889.53;4890641;29;943;-76
2022/06/02 01:15:34;;;;;;;;;;;;;;;21.19;30.69;97893.53;4882971;29;1033;-77
2022/06/02 01:18:06;;;;;;;;;;;;;;;21.55;31.14;97889.72;4882236;29;1125;-76
2022/06/02 01:20:37;;;;;;;;;;;;;;;21.85;30.54;97883.59;4882764;29;945;-76
2022/06/02 01:23:11;;;;;;;;;;;;;;;21.99;30.25;97882.38;4886674;28;1902;-77
2022/06/02 01:25:42;;;;;;;;;;;;;;;21.54;30.73;97885.31;4977509;28;1008;-77
2022/06/02 01:28:28;;;;;;;;;;;;;;;21.32;31.09;97879.47;4949782;28;996;-77
2022/06/02 01:30:53;;;;;;;;;;;;;;;21.29;31.04;97875.44;4977043;28;1017;-76
2022/06/02 01:33:25;;;;;;;;;;;;;;;21.34;30.74;97876.97;4977594;28;946;-77
2022/06/02 01:35:54;;;;;;;;;;;;;;;21.36;30.80;97874.50;4941588;29;917;-76
2022/06/02 01:38:27;;;;;;;;;;;;;;;21.22;30.99;97881.31;4941690;29;1238;-77
2022/06/02 01:40:53;;;;;;;;;;;;;;;21.25;30.71;97880.44;4919476;29;1040;-76
2022/06/02 01:43:37;;;;;;;;;;;;;;;21.29;30.63;97878.28;4919473;29;1995;-76
2022/06/02 01:46:02;;;;;;;;;;;;;;;21.35;30.85;97877.75;4919226;29;971;-76
2022/06/02 01:48:40;;;;;;;;;;;;;;;21.84;30.41;97890.50;4900590;29;968;-76
2022/06/02 01:51:17;;;;;;;;;;;;;;;22.02;30.02;97881.50;4900865;29;964;-76
2022/06/02 01:53:46;;;;;;;;;;;;;;;21.60;30.53;97883.50;4900540;29;987;-77
2022/06/02 01:56:11;;;;;;;;;;;;;;;21.47;30.65;97882.69;4885088;29;980;-76
2022/06/02 01:58:46;;;;;;;;;;;;;;;21.33;30.40;97892.38;4905507;29;1043;-76
2022/06/02 02:01:35;;;;;;;;;;;;;;;21.35;30.49;97878.56;4903647;29;1182;-76
2022/06/02 02:04:00;;;;;;;;;;;;;;;21.21;30.49;97879.72;4863012;29;1907;-76
2022/06/02 02:06:31;;;;;;;;;;;;;;;21.18;30.70;97879.81;4856882;29;981;-76
2022/06/02 02:09:08;;;;;;;;;;;;;;;21.12;30.59;97876.72;4844751;29;1077;-76
2022/06/02 02:11:46;;;;;;;;;;;;;;;21.21;30.39;97885.38;4854405;29;1079;-76
2022/06/02 02:14:21;;;;;;;;;;;;;;;21.22;30.43;97875.66;4897668;29;1027;-77
2022/06/02 02:16:52;;;;;;;;;;;;;;;21.25;30.42;97877.59;4900506;29;1119;-76
2022/06/02 02:19:21;;;;;;;;;;;;;;;21.29;30.29;97875.44;4897449;29;976;-77
2022/06/02 02:21:46;;;;;;;;;;;;;;;21.59;30.37;97876.28;4919077;29;1032;-76
2022/06/02 02:24:20;;;;;;;;;;;;;;;21.90;29.87;97872.97;4881328;29;1978;-76
2022/06/02 02:26:48;;;;;;;;;;;;;;;21.96;29.80;97876.81;4881275;29;923;-77
2022/06/02 02:29:13;;;;;;;;;;;;;;;21.44;30.22;97880.75;4865975;29;1074;-77
2022/06/02 02:32:02;;;;;;;;;;;;;;;21.37;30.58;97875.28;4881357;29;1037;-76
2022/06/02 02:34:33;;;;;;;;;;;;;;;21.23;30.69;97877.22;4825546;29;1151;-76
2022/06/02 02:37:03;;;;;;;;;;;;;;;21.15;30.68;97875.84;4825647;29;899;-76
2022/06/02 02:39:34;;;;;;;;;;;;;;;21.20;30.73;97889.47;4789256;30;1014;-76
2022/06/02 02:42:08;;;;;;;;;;;;;;;21.19;30.16;97870.91;4807204;29;1179;-76
2022/06/02 02:44:39;;;;;;;;;;;;;;;21.14;30.35;97879.94;4810594;29;1903;-77
2022/06/02 02:47:05;;;;;;;;;;;;;;;21.29;30.68;97881.09;4825865;29;1126;-76
2022/06/02 02:49:37;;;;;;;;;;;;;;;21.77;29.78;97879.41;4831973;29;1024;-76
2022/06/02 02:52:06;;;;;;;;;;;;;;;22.00;29.47;97871.84;4843588;29;945;-76
2022/06/02 02:54:35;;;;;;;;;;;;;;;21.66;29.59;97880.94;4843661;29;920;-77
2022/06/02 02:57:10;;;;;;;;;;;;;;;21.37;30.11;97880.94;4843823;29;977;-76
2022/06/02 02:59:38;;;;;;;;;;;;;;;21.47;29.85;97882.69;4843463;29;1204;-76
2022/06/02 03:02:04;;;;;;;;;;;;;;;21.37;30.02;97875.28;4843568;29;954;-76
2022/06/02 03:04:33;;;;;;;;;;;;;;;21.31;29.99;97886.38;4843824;29;1966;-76
2022/06/02 03:06:59;;;;;;;;;;;;;;;21.35;30.03;97883.41;4843692;29;954;-76
2022/06/02 03:09:30;;;;;;;;;;;;;;;21.22;30.03;97892.63;4845526;29;1075;-77
2022/06/02 03:11:55;;;;;;;;;;;;;;;21.28;30.29;97895.69;4946480;28;980;-76
2022/06/02 03:14:25;;;;;;;;;;;;;;;21.12;30.37;97893.69;4975503;28;946;-76
2022/06/02 03:16:58;;;;;;;;;;;;;;;21.24;30.13;97895.81;4917687;29;1060;-76
2022/06/02 03:19:38;;;;;;;;;;;;;;;21.17;29.98;97901.66;4898750;29;1052;-76
2022/06/02 03:22:07;;;;;;;;;;;;;;;21.12;30.00;97895.75;4887192;29;1087;-76
2022/06/02 03:24:41;;;;;;;;;;;;;;;21.10;30.41;97896.19;4936683;29;1907;-76
2022/06/02 03:27:09;;;;;;;;;;;;;;;21.30;30.17;97907.41;4936637;29;971;-76
2022/06/02 03:29:53;;;;;;;;;;;;;;;21.78;29.37;97900.81;4936759;29;989;-76
2022/06/02 03:32:21;;;;;;;;;;;;;;;21.90;29.00;97901.28;4937006;29;988;-77
2022/06/02 03:34:53;;;;;;;;;;;;;;;21.47;29.92;97913.84;4936860;29;977;-77
2022/06/02 03:37:18;;;;;;;;;;;;;;;21.22;29.95;97909.59;4936660;29;1006;-76
2022/06/02 03:40:02;;;;;;;;;;;;;;;21.37;29.75;97914.91;4936971;29;1123;-76
2022/06/02 03:42:45;;;;;;;;;;;;;;;21.20;29.81;97909.25;4946642;29;1111;-76
2022/06/02 03:45:17;;;;;;;;;;;;;;;21.18;29.94;97903.22;4949899;29;1997;-76
2022/06/02 03:47:52;;;;;;;;;;;;;;;21.22;29.82;97908.81;4936354;29;1120;-76
2022/06/02 03:50:23;;;;;;;;;;;;;;;21.17;30.13;97912.19;4936271;29;1024;-76
2022/06/02 03:53:07;;;;;;;;;;;;;;;21.19;30.19;97916.16;4955429;28;981;-76
2022/06/02 03:55:45;;;;;;;;;;;;;;;21.63;29.95;97925.09;4955329;28;1031;-77
2022/06/02 03:58:28;;;;;;;;;;;;;;;21.75;29.45;97920.72;4955579;28;1013;-76
2022/06/02 04:00:58;;;;;;;;;;;;;;;21.65;29.37;97910.50;4955317;28;974;-76
2022/06/02 04:03:42;;;;;;;;;;;;;;;21.36;29.98;97919.78;4955295;28;1902;-77
2022/06/02 04:06:22;;;;;;;;;;;;;;;21.42;30.09;97917.22;4955281;28;1036;-76
2022/06/02 04:08:53;;;;;;;;;;;;;;;21.28;30.06;97913.47;4955329;28;908;-76
2022/06/02 04:11:27;;;;;;;;;;;;;;;21.20;30.15;97917.75;4955698;28;1154;-76
2022/06/02 04:14:07;;;;;;;;;;;;;;;21.25;30.16;97917.22;4939563;29;1025;-77
2022/06/02 04:16:38;;;;;;;;;;;;;;;21.25;30.22;97917.22;4939420;28;1078;-76
2022/06/02 04:22:00;;;;;;;;;;;;;;;21.23;30.35;97916.84;4952997;28;1127;-77
2022/06/02 04:24:43;;;;;;;;;;;;;;;21.18;30.42;97919.41;4915939;29;1907;-76
2022/06/02 04:27:23;;;;;;;;;;;;;;;21.13;30.37;97923.56;4921261;29;1082;-76
2022/06/02 04:30:01;;;;;;;;;;;;;;;21.20;30.50;97923.41;4939841;29;1080;-77
2022/06/02 04:32:40;;;;;;;;;;;;;;;21.21;30.34;97927.03;4939767;29;991;-77
2022/06/02 04:35:06;;;;;;;;;;;;;;;21.12;30.82;97933.31;4939642;29;982;-76
2022/06/02 04:37:31;;;;;;;;;;;;;;;21.19;30.47;97921.81;4940052;29;1068;-77
2022/06/02 04:39:57;;;;;;;;;;;;;;;21.13;30.59;97929.22;4939810;29;1199;-77
2022/06/02 04:42:25;;;;;;;;;;;;;;;21.54;30.37;97924.94;4939674;29;956;-76
2022/06/02 04:45:16;;;;;;;;;;;;;;;21.84;30.27;97932.19;4939580;29;1907;-77
2022/06/02 04:47:46;;;;;;;;;;;;;;;21.95;29.78;97932.69;4937664;29;1051;-77
2022/06/02 04:50:11;;;;;;;;;;;;;;;21.59;30.26;97942.19;4939535;29;925;-77
2022/06/02 04:52:37;;;;;;;;;;;;;;;21.52;30.16;97942.38;4939509;29;971;-77
2022/06/02 04:55:08;;;;;;;;;;;;;;;21.36;30.50;97924.66;4952949;28;979;-76
2022/06/02 04:57:36;;;;;;;;;;;;;;;21.31;30.68;97935.28;5014932;28;963;-77
2022/06/02 05:00:14;;;;;;;;;;;;;;;21.37;30.64;97937.56;5000894;28;1078;-76
2022/06/02 05:02:58;;;;;;;;;;;;;;;21.25;30.61;97937.03;4998725;28;985;-77
2022/06/02 05:05:31;;;;;;;;;;;;;;;21.19;30.79;97933.16;5004757;28;1894;-77
2022/06/02 05:07:57;;;;;;;;;;;;;;;21.30;30.56;97945.00;5007585;28;1333;-76
2022/06/02 05:10:25;;;;;;;;;;;;;;;21.26;30.44;97938.59;5009591;28;1225;-77
2022/06/02 05:12:57;;;;;;;;;;;;;;;21.17;30.47;97929.94;5006252;28;1163;-77
2022/06/02 05:15:42;;;;;;;;;;;;;;;21.29;30.74;97948.22;5007727;28;1170;-76
2022/06/02 05:18:13;;;;;;;;;;;;;;;21.15;30.80;97943.75;5009460;28;1310;-76
2022/06/02 05:21:14;;;;;;;;;;;;;;;21.17;30.93;97940.47;5009099;28;1323;-76
2022/06/02 05:23:49;;;;;;;;;;;;;;;21.38;30.30;97941.97;4937071;29;1983;-77
2022/06/02 05:26:33;;;;;;;;;;;;;;;21.26;30.39;97949.94;4920326;29;1647;-76
2022/06/02 05:29:17;;;;;;;;;;;;;;;21.41;30.95;97944.72;4929561;29;1152;-76
2022/06/02 05:32:01;;;;;;;;;;;;;;;21.75;30.49;97951.88;4938765;29;1029;-76
2022/06/02 05:34:32;;;;;;;;;;;;;;;21.87;30.44;97947.53;4924590;29;1318;-76
2022/06/02 05:37:17;;;;;;;;;;;;;;;21.52;30.76;97956.53;4938226;29;1302;-76
2022/06/02 05:39:42;;;;;;;;;;;;;;;21.41;30.84;97949.59;4934003;29;1293;-77
2022/06/02 05:42:08;;;;;;;;;;;;;;;21.54;30.51;97954.06;4937578;29;1540;-77
2022/06/02 05:44:53;;;;;;;;;;;;;;;21.48;30.58;97950.19;4938236;29;1992;-77
2022/06/02 05:47:27;;;;;;;;;;;;;;;21.33;30.71;97955.41;4873684;29;1272;-76
2022/06/02 05:49:59;;;;;;;;;;;;;;;21.29;30.66;97960.34;4871647;29;1111;-76
2022/06/02 05:52:27;;;;;;;;;;;;;;;21.24;30.79;97963.72;4870969;29;1537;-76
2022/06/02 05:55:05;;;;;;;;;;;;;;;21.31;30.80;97952.25;4853946;29;1162;-76
2022/06/02 05:57:34;;;;;;;;;;;;;;;21.24;30.79;97958.06;4853892;29;1241;-76
2022/06/02 06:00:20;;;;;;;;;;;;;;;21.36;30.29;97962.25;4853433;29;1328;-76
2022/06/02 06:02:52;;;;;;;;;;;;;;;21.20;30.84;97960.19;4834105;29;1361;-76
2022/06/02 06:05:53;;;;;;;;;;;;;;;21.20;30.52;97953.75;4834757;29;1984;-77
2022/06/02 06:08:24;;;;;;;;;;;;;;;21.27;30.46;97962.84;4799926;29;1389;-76
2022/06/02 06:10:59;;;;;;;;;;;;;;;21.30;30.25;97956.31;4797709;29;1420;-76
2022/06/02 06:13:24;;;;;;;;;;;;;;;21.27;30.36;97957.16;4780700;29;1305;-76
2022/06/02 06:16:08;;;;;;;;;;;;;;;21.24;30.50;97949.59;4771922;30;1051;-76
2022/06/02 06:18:39;;;;;;;;;;;;;;;21.19;30.38;97954.97;4792789;29;1659;-76
2022/06/02 06:21:17;;;;;;;;;;;;;;;21.08;30.40;97955.22;4825897;29;1033;-76
2022/06/02 06:24:02;;;;;;;;;;;;;;;21.12;30.60;97955.16;4826015;29;1891;-76
2022/06/02 06:26:46;;;;;;;;;;;;;;;21.19;30.42;97946.47;4826177;29;1032;-76
2022/06/02 06:29:32;;;;;;;;;;;;;;;21.08;30.56;97958.06;4825723;29;1000;-76
2022/06/02 06:32:03;;;;;;;;;;;;;;;21.35;30.51;97957.00;4789635;30;1086;-76
2022/06/02 06:34:47;;;;;;;;;;;;;;;21.85;29.80;97951.56;4783944;30;964;-76
2022/06/02 06:37:24;;;;;;;;;;;;;;;21.74;29.93;97962.41;4771670;30;921;-77
2022/06/02 06:39:58;;;;;;;;;;;;;;;21.42;30.22;97956.84;4806920;29;1048;-76
2022/06/02 06:42:24;;;;;;;;;;;;;;;21.30;30.67;97949.88;4889289;29;1302;-76
2022/06/02 06:44:53;;;;;;;;;;;;;;;21.25;30.61;97954.00;4918639;29;1911;-76
2022/06/02 06:47:24;;;;;;;;;;;;;;;21.29;30.29;97954.69;4918588;29;959;-76
2022/06/02 06:49:55;;;;;;;;;;;;;;;21.25;30.44;97958.88;4918403;29;1017;-76
2022/06/02 06:52:44;;;;;;;;;;;;;;;21.18;30.53;97954.16;4915547;29;1185;-76
2022/06/02 06:55:30;;;;;;;;;;;;;;;21.32;30.65;97959.50;4855526;29;1214;-76
2022/06/02 06:58:18;;;;;;;;;;;;;;;21.22;30.41;97966.19;4877199;29;1320;-76
2022/06/02 07:00:47;;;;;;;;;;;;;;;21.29;30.38;97959.56;4861996;29;1480;-76
2022/06/02 07:03:31;;;;;;;;;;;;;;;21.33;30.19;97966.75;4843671;29;1006;-76
2022/06/02 07:05:59;;;;;;;;;;;;;;;21.32;30.18;97970.81;4843283;29;1075;-76
2022/06/02 07:08:34;;;;;;;;;;;;;;;21.13;30.89;97968.84;4857105;29;995;-76
2022/06/02 07:14:06;;;;;;;;;;;;;;;21.19;30.65;97978.41;4906621;29;1332;-76
2022/06/02 07:16:55;;;;;;;;;;;;;;;21.28;30.60;97974.94;4907083;29;1256;-76
2022/06/02 07:19:39;;;;;;;;;;;;;;;21.16;30.67;97973.63;4906483;29;1260;-76
2022/06/02 07:22:20;;;;;;;;;;;;;;;21.31;30.38;97985.41;4907600;29;1206;-77
2022/06/02 07:24:51;;;;;;;;;;;;;;;21.26;30.37;97983.88;4907519;29;1910;-76
2022/06/02 07:27:21;;;;;;;;;;;;;;;21.23;30.74;97979.09;4890494;29;1262;-76
2022/06/02 07:29:55;;;;;;;;;;;;;;;21.14;30.89;97984.59;4898833;29;979;-76
2022/06/02 07:32:30;;;;;;;;;;;;;;;21.19;30.46;97984.06;4943323;28;1451;-76
2022/06/02 07:35:13;;;;;;;;;;;;;;;21.14;30.91;97984.59;4991809;28;1385;-76
2022/06/02 07:37:57;;;;;;;;;;;;;;;21.30;30.31;97993.13;4979151;28;932;-76
2022/06/02 07:40:34;;;;;;;;;;;;;;;21.25;30.51;97979.47;4994409;28;967;-76
2022/06/02 07:43:02;;;;;;;;;;;;;;;21.19;30.46;97989.75;4978066;28;935;-76
2022/06/02 07:45:31;;;;;;;;;;;;;;;21.14;30.62;97986.63;4994363;28;1973;-76
2022/06/02 07:48:14;;;;;;;;;;;;;;;21.18;30.80;97985.28;4977728;28;980;-76
2022/06/02 07:50:42;;;;;;;;;;;;;;;21.23;30.51;97990.41;4994308;28;954;-76
2022/06/02 07:53:10;;;;;;;;;;;;;;;21.15;30.50;98000.34;4978234;28;1026;-76
2022/06/02 07:55:51;;;;;;;;;;;;;;;21.06;30.65;97994.50;4994042;28;867;-77
2022/06/02 07:58:20;;;;;;;;;;;;;;;21.11;30.69;97999.63;4994134;28;1002;-77
2022/06/02 08:01:04;;;;;;;;;;;;;;;21.26;30.32;97994.41;4983404;28;1555;-76
2022/06/02 08:03:36;;;;;;;;;;;;;;;21.43;30.94;97995.22;5007083;28;1894;-76
2022/06/02 08:06:04;;;;;;;;;;;;;;;21.86;30.42;97986.34;5016170;28;856;-76
2022/06/02 08:09:01;;;;;;;;;;;;;;;22.32;29.31;98004.91;5016119;28;1072;-76
2022/06/02 08:11:45;;;;;;;;;;;;;;;21.97;29.73;98000.25;4974305;28;1318;-76
2022/06/02 08:14:13;;;;;;;;;;;;;;;21.57;30.63;97995.63;4974598;28;989;-76
2022/06/02 08:17:02;;;;;;;;;;;;;;;21.42;30.64;97996.47;4959068;28;1192;-77
2022/06/02 08:19:44;;;;;;;;;;;;;;;21.39;30.77;97986.00;4898218;29;1081;-76
2022/06/02 08:22:11;;;;;;;;;;;;;;;21.35;30.94;97991.78;4878776;29;1253;-76
2022/06/02 08:24:39;;;;;;;;;;;;;;;21.35;30.67;97996.63;4859018;29;1978;-76
2022/06/02 08:27:23;;;;;;;;;;;;;;;21.39;31.03;97997.34;4879356;29;1265;-77
2022/06/02 08:29:58;;;;;;;;;;;;;;;21.32;30.76;97992.66;4877577;29;1330;-77
2022/06/02 08:32:35;;;;;;;;;;;;;;;21.41;30.95;98000.53;4876340;29;1169;-76
2022/06/02 08:35:10;;;;;;;;;;;;;;;21.39;30.69;97997.34;4861120;29;1047;-76
2022/06/02 08:37:54;;;;;;;;;;;;;;;21.28;30.80;97992.72;4823926;29;934;-76
2022/06/02 08:40:38;;;;;;;;;;;;;;;21.24;31.08;97994.03;4824137;29;997;-76
2022/06/02 08:43:24;;;;;;;;;;;;;;;21.30;31.10;97995.94;4808955;29;1012;-76
2022/06/02 08:46:05;;;;;;;;;;;;;;;21.22;31.05;98000.16;4809079;29;968;-76
2022/06/02 08:48:49;;;;;;;;;;;;;;;21.36;30.87;97999.03;4824184;29;987;-76
2022/06/02 08:51:33;;;;;;;;;;;;;;;21.24;30.88;97997.69;4824160;29;1115;-76
2022/06/02 08:54:01;;;;;;;;;;;;;;;21.27;30.76;97996.78;4824140;29;1598;-77
2022/06/02 08:56:45;;;;;;;;;;;;;;;21.25;30.94;98004.94;4850876;29;1546;-76
2022/06/02 08:59:19;;;;;;;;;;;;;;;21.37;30.85;97999.81;4879565;29;963;-77
2022/06/02 09:01:50;;;;;;;;;;;;;;;21.32;30.81;97995.50;4879157;29;980;-76
2022/06/02 09:04:28;;;;;;;;;;;;;;;21.39;30.86;98003.78;4884942;29;1907;-77
2022/06/02 09:07:05;;;;;;;;;;;;;;;21.27;30.83;98002.44;4895630;29;992;-77
2022/06/02 09:09:49;;;;;;;;;;;;;;;21.35;30.94;97996.63;4950851;29;970;-76
2022/06/02 09:12:38;;;;;;;;;;;;;;;21.21;31.26;98007.06;4958227;29;935;-76
2022/06/02 09:15:33;;;;;;;;;;;;;;;21.27;31.09;98002.44;4942423;29;1085;-77
2022/06/02 09:18:10;;;;;;;;;;;;;;;21.31;30.94;97997.53;4882319;29;1257;-76
2022/06/02 09:20:41;;;;;;;;;;;;;;;21.25;31.09;98001.31;4882644;29;1054;-76
2022/06/02 09:23:16;;;;;;;;;;;;;;;21.17;31.14;98006.34;4867275;29;887;-76
2022/06/02 09:25:42;;;;;;;;;;;;;;;21.26;31.03;97989.53;4912246;29;1977;-76
2022/06/02 09:28:26;;;;;;;;;;;;;;;21.29;31.01;98004.81;4920152;29;910;-76
2022/06/02 09:30:57;;;;;;;;;;;;;;;21.18;31.37;98005.09;4920104;29;949;-76
2022/06/02 09:33:37;;;;;;;;;;;;;;;21.28;31.25;97997.59;4900517;29;915;-76
2022/06/02 09:36:21;;;;;;;;;;;;;;;21.29;31.42;98014.09;4886370;29;1075;-76
2022/06/02 09:38:54;;;;;;;;;;;;;;;21.18;31.47;98016.41;4901154;29;1550;-76
2022/06/02 09:41:19;;;;;;;;;;;;;;;21.29;31.33;98011.28;4900897;29;1012;-76
2022/06/02 09:43:54;;;;;;;;;;;;;;;21.30;31.09;98001.59;4900630;29;1906;-76
2022/06/02 09:46:22;;;;;;;;;;;;;;;21.27;31.21;98004.47;4900584;29;951;-76
2022/06/02 09:48:50;;;;;;;;;;;;;;;21.18;31.27;98007.94;4900819;29;1017;-76
2022/06/02 09:51:34;;;;;;;;;;;;;;;21.25;31.19;98016.25;4900634;29;958;-76
2022/06/02 09:54:14;;;;;;;;;;;;;;;21.29;31.23;98010.50;4920186;29;1033;-76
2022/06/02 09:56:54;;;;;;;;;;;;;;;21.15;31.36;98017.31;4941692;29;960;-76
2022/06/02 09:59:33;;;;;;;;;;;;;;;21.18;31.07;98019.25;4922630;29;892;-76
2022/06/02 10:02:02;;;;;;;;;;;;;;;21.25;31.10;98015.47;4938246;29;971;-76
2022/06/02 10:04:36;;;;;;;;;;;;;;;21.22;30.96;98017.13;4941361;29;1980;-76
2022/06/02 10:07:40;;;;;;;;;;;;;;;21.24;30.90;98006.19;4957431;29;992;-76
2022/06/02 10:10:09;;;;;;;;;;;;;;;21.12;31.06;98023.84;4919373;29;917;-76
2022/06/02 10:12:56;;;;;;;;;;;;;;;21.08;31.30;98015.44;4919518;29;954;-76
2022/06/02 10:15:40;;;;;;;;;;;;;;;21.12;31.36;98012.53;4928154;29;1850;-76
2022/06/02 10:18:37;;;;;;;;;;;;;;;21.13;31.10;98008.47;4938017;29;1310;-76
2022/06/02 10:21:09;;;;;;;;;;;;;;;21.16;31.04;98013.25;4918856;29;1036;-75
2022/06/02 10:23:38;;;;;;;;;;;;;;;21.13;30.99;98008.47;4918847;29;1899;-76
2022/06/02 10:26:22;;;;;;;;;;;;;;;21.28;31.16;98006.88;4918804;29;939;-76
2022/06/02 10:28:56;;;;;;;;;;;;;;;21.13;31.43;98002.78;4918725;29;1017;-77
2022/06/02 10:31:30;;;;;;;;;;;;;;;21.24;30.95;98006.19;4936202;29;910;-76
2022/06/02 10:34:13;;;;;;;;;;;;;;;21.22;30.92;98000.16;4937952;29;973;-76
2022/06/02 10:37:14;;;;;;;;;;;;;;;21.26;31.14;98003.69;4937462;29;928;-76
2022/06/02 10:39:54;;;;;;;;;;;;;;;21.10;31.04;98009.34;4899668;29;968;-76
2022/06/02 10:42:30;;;;;;;;;;;;;;;21.04;31.54;98000.59;4937516;29;1075;-76
2022/06/02 10:44:56;;;;;;;;;;;;;;;21.10;31.20;98003.69;4921437;29;1970;-76
2022/06/02 10:47:21;;;;;;;;;;;;;;;21.35;30.71;97990.97;4937483;29;979;-76
2022/06/02 10:49:46;;;;;;;;;;;;;;;21.31;30.75;97983.38;4921334;29;1019;-76
2022/06/02 10:52:21;;;;;;;;;;;;;;;21.27;30.97;97990.34;4937146;29;929;-76
2022/06/02 10:55:01;;;;;;;;;;;;;;;21.26;31.10;97992.38;4921412;29;1520;-76
2022/06/02 10:57:29;;;;;;;;;;;;;;;21.19;31.18;97984.06;4906166;29;1049;-76
2022/06/02 11:00:16;;;;;;;;;;;;;;;21.16;31.36;97979.28;4902168;29;1007;-76
2022/06/02 11:02:59;;;;;;;;;;;;;;;21.30;31.17;97978.97;4918173;29;1096;-76
2022/06/02 11:05:43;;;;;;;;;;;;;;;21.29;31.23;97977.31;4917932;29;1978;-76
2022/06/02 11:08:20;;;;;;;;;;;;;;;21.27;30.94;97968.50;4902243;29;1028;-76
2022/06/02 11:10:59;;;;;;;;;;;;;;;21.29;31.07;97982.19;4918077;29;995;-76
2022/06/02 11:13:43;;;;;;;;;;;;;;;21.29;30.89;97982.97;4949851;28;869;-76
2022/06/02 11:16:08;;;;;;;;;;;;;;;21.31;31.19;97979.75;4995767;28;1038;-76
2022/06/02 11:18:40;;;;;;;;;;;;;;;21.30;30.99;97981.00;4997190;28;964;-76
2022/06/02 11:21:16;;;;;;;;;;;;;;;21.37;30.89;97982.84;4997389;28;997;-76
2022/06/02 11:23:45;;;;;;;;;;;;;;;21.37;31.14;97983.63;4997258;28;1899;-76
2022/06/02 11:26:11;;;;;;;;;;;;;;;21.31;31.10;97980.56;4997338;28;860;-76
2022/06/02 11:28:49;;;;;;;;;;;;;;;21.30;31.12;97984.63;4997134;28;1083;-76
2022/06/02 11:31:20;;;;;;;;;;;;;;;21.21;31.06;97984.41;4996210;28;906;-76
2022/06/02 11:33:52;;;;;;;;;;;;;;;21.19;31.18;97984.06;4997137;28;907;-76
2022/06/02 11:36:20;;;;;;;;;;;;;;;21.26;31.31;97983.88;4997257;28;896;-76
2022/06/02 11:38:54;;;;;;;;;;;;;;;21.16;31.11;97975.66;4997134;28;1079;-76
2022/06/02 11:41:23;;;;;;;;;;;;;;;21.32;30.99;97982.13;4997214;28;931;-76
2022/06/02 11:43:51;;;;;;;;;;;;;;;21.26;30.86;97981.06;4997106;28;1899;-76
2022/06/02 11:46:25;;;;;;;;;;;;;;;21.26;31.08;97971.78;4995810;28;955;-76
2022/06/02 11:49:05;;;;;;;;;;;;;;;21.16;31.23;97972.84;4995736;28;875;-76
2022/06/02 11:51:49;;;;;;;;;;;;;;;21.27;31.35;97962.84;5009360;28;1112;-76
2022/06/02 11:54:32;;;;;;;;;;;;;;;21.25;31.22;97970.97;5016656;28;923;-76
2022/06/02 11:57:17;;;;;;;;;;;;;;;21.25;31.11;97959.66;5016235;28;984;-76
2022/06/02 12:00:00;;;;;;;;;;;;;;;21.29;31.13;97953.88;5015256;28;910;-76
2022/06/02 12:02:38;;;;;;;;;;;;;;;21.27;31.24;97957.16;5015247;28;872;-76
2022/06/02 12:05:04;;;;;;;;;;;;;;;21.23;31.50;97956.47;5014835;28;1910;-76
2022/06/02 12:07:38;;;;;;;;;;;;;;;21.33;31.19;97951.78;5016266;28;872;-76
2022/06/02 12:10:13;;;;;;;;;;;;;;;21.29;31.37;97957.50;5013635;28;1434;-76
2022/06/02 12:12:51;;;;;;;;;;;;;;;21.26;31.66;97940.66;5000243;28;1261;-76
2022/06/02 12:15:32;;;;;;;;;;;;;;;21.21;31.61;97947.63;5007019;28;1250;-76
2022/06/02 12:17:57;;;;;;;;;;;;;;;21.30;31.44;97935.72;5004461;28;1339;-76
2022/06/02 12:20:25;;;;;;;;;;;;;;;21.46;30.96;97946.22;4996733;28;1300;-76
2022/06/02 12:22:51;;;;;;;;;;;;;;;21.43;31.09;97928.06;4974440;28;931;-76
2022/06/02 12:25:37;;;;;;;;;;;;;;;21.33;31.40;97938.44;4958458;28;1988;-76
2022/06/02 12:28:05;;;;;;;;;;;;;;;21.33;31.53;97935.59;4935548;29;1227;-76
2022/06/02 12:30:37;;;;;;;;;;;;;;;21.28;31.34;97924.78;4936056;29;1234;-76
2022/06/02 12:33:19;;;;;;;;;;;;;;;21.32;31.43;97927.56;4933711;29;1256;-76
2022/06/02 12:35:47;;;;;;;;;;;;;;;21.35;31.21;97917.38;4934048;29;1318;-76
2022/06/02 12:38:21;;;;;;;;;;;;;;;21.38;31.37;97922.16;4919638;29;1375;-76
2022/06/02 12:40:51;;;;;;;;;;;;;;;21.37;31.32;97921.38;4917299;29;982;-76
2022/06/02 12:43:21;;;;;;;;;;;;;;;21.35;31.63;97917.38;4938433;29;1326;-76
2022/06/02 12:45:57;;;;;;;;;;;;;;;21.28;31.56;97919.13;4922441;29;1910;-76
2022/06/02 12:48:43;;;;;;;;;;;;;;;21.31;31.49;97915.47;4892776;29;1539;-76
2022/06/02 12:51:23;;;;;;;;;;;;;;;21.31;31.55;97923.94;4891076;29;1355;-76
2022/06/02 12:53:52;;;;;;;;;;;;;;;21.23;31.63;97933.81;4892782;29;1213;-76
2022/06/02 12:56:55;;;;;;;;;;;;;;;21.30;31.29;97925.19;4901453;29;1399;-76
2022/06/02 12:59:21;;;;;;;;;;;;;;;21.56;30.66;97919.66;4882706;29;937;-76
2022/06/02 13:01:49;;;;;;;;;;;;;;;21.32;31.14;97911.38;4883149;29;992;-76
2022/06/02 13:04:17;;;;;;;;;;;;;;;21.36;31.34;97924.66;4882421;29;1982;-76
2022/06/02 13:07:18;;;;;;;;;;;;;;;21.36;30.88;97919.00;4853506;29;1387;-76
2022/06/02 13:09:46;;;;;;;;;;;;;;;21.38;31.01;97922.16;4826764;29;1310;-76
2022/06/02 13:12:35;;;;;;;;;;;;;;;21.32;31.10;97925.53;4827374;29;1010;-76
2022/06/02 13:15:06;;;;;;;;;;;;;;;21.14;31.35;97922.38;4808736;29;991;-76
2022/06/02 13:17:37;;;;;;;;;;;;;;;21.31;31.39;97918.28;4808985;29;1195;-76
2022/06/02 13:20:21;;;;;;;;;;;;;;;21.44;30.83;97915.50;4823125;29;972;-76
2022/06/02 13:22:49;;;;;;;;;;;;;;;21.40;30.99;97928.16;4797219;29;897;-76
2022/06/02 13:25:21;;;;;;;;;;;;;;;21.49;31.08;97933.97;4826879;29;1973;-76
2022/06/02 13:27:53;;;;;;;;;;;;;;;21.48;30.80;97927.53;4809020;29;1542;-76
2022/06/02 13:30:36;;;;;;;;;;;;;;;21.41;31.02;97927.72;4808748;29;1023;-76
2022/06/02 13:33:20;;;;;;;;;;;;;;;21.43;31.22;97924.44;4808784;29;1013;-76
2022/06/02 13:35:46;;;;;;;;;;;;;;;21.50;31.05;97935.56;4845327;29;1483;-76
2022/06/02 13:38:21;;;;;;;;;;;;;;;21.43;31.24;97930.13;4826547;29;2143;-76
2022/06/02 13:41:05;;;;;;;;;;;;;;;21.32;31.06;97931.19;4826829;29;1001;-76
2022/06/02 13:43:50;;;;;;;;;;;;;;;21.29;31.44;97932.03;4834043;29;964;-76
2022/06/02 13:46:28;;;;;;;;;;;;;;;21.31;31.21;97917.50;4826645;29;1454;-76
2022/06/02 13:49:12;;;;;;;;;;;;;;;21.24;31.10;97912.81;4823400;29;1003;-76
2022/06/02 13:51:47;;;;;;;;;;;;;;;21.36;31.17;97924.66;4832636;29;1062;-76